LVEHK SAZB-SADF
Flight info
| Callsign | LVEHK |
|---|---|
| Flight time | 1h 23m |
| Altitude | 9000 |
| Route | PULAS2G PULAS W22 VALOS DCT TRINI |
| Aircraft | AEST/L-SDFGRY/S |
Departure
| Time | 2026-05-04 18:13 |
|---|---|
| Airport | Comandante Espora Airport (SAZB) |
Arrival
| Time | 2026-05-04 19:36 |
|---|---|
| Airport | San Fernando Airport (SADF) |
| Time | Latitude | Longitude | Altitude | Speed | Heading |
|---|---|---|---|---|---|
| 2026-05-04 17:51 | -38.71689 | -62.16260 | 252 ft | 0 kts | 318° |
| 2026-05-04 18:07 | -38.71678 | -62.16266 | 252 ft | 6 kts | 1° |
| 2026-05-04 18:08 | -38.71675 | -62.16266 | 252 ft | 0 kts | 3° |
| 2026-05-04 18:08 | -38.71666 | -62.16264 | 252 ft | 7 kts | 21° |
| 2026-05-04 18:08 | -38.71649 | -62.16168 | 252 ft | 19 kts | 103° |
| 2026-05-04 18:09 | -38.71931 | -62.15957 | 251 ft | 36 kts | 164° |
| 2026-05-04 18:09 | -38.72430 | -62.15791 | 252 ft | 27 kts | 181° |
| 2026-05-04 18:10 | -38.72645 | -62.15815 | 252 ft | 33 kts | 184° |
| 2026-05-04 18:10 | -38.72910 | -62.15851 | 252 ft | 32 kts | 182° |
| 2026-05-04 18:10 | -38.72996 | -62.15811 | 252 ft | 18 kts | 94° |
| 2026-05-04 18:10 | -38.72990 | -62.15556 | 252 ft | 30 kts | 90° |
| 2026-05-04 18:11 | -38.72986 | -62.15488 | 251 ft | 12 kts | 202° |
| 2026-05-04 18:11 | -38.73138 | -62.15441 | 251 ft | 31 kts | 163° |
| 2026-05-04 18:11 | -38.73302 | -62.15340 | 252 ft | 8 kts | 96° |
| 2026-05-04 18:11 | -38.73325 | -62.15232 | 252 ft | 0 kts | 104° |
| 2026-05-04 18:12 | -38.73326 | -62.15172 | 252 ft | 12 kts | 64° |
| 2026-05-04 18:12 | -38.73205 | -62.15166 | 250 ft | 44 kts | 341° |
| 2026-05-04 18:12 | -38.72677 | -62.15374 | 250 ft | 104 kts | 343° |
| 2026-05-04 18:13 | -38.71939 | -62.15640 | 358 ft | 113 kts | 336° |
| 2026-05-04 18:13 | -38.71111 | -62.16024 | 511 ft | 137 kts | 333° |
| 2026-05-04 18:13 | -38.69134 | -62.16165 | 1291 ft | 150 kts | 4° |
| 2026-05-04 18:14 | -38.68099 | -62.15983 | 1786 ft | 150 kts | 359° |
| 2026-05-04 18:14 | -38.67055 | -62.15640 | 2020 ft | 165 kts | 18° |
| 2026-05-04 18:14 | -38.65940 | -62.15015 | 2359 ft | 174 kts | 13° |
| 2026-05-04 18:15 | -38.63655 | -62.14377 | 3338 ft | 169 kts | 6° |
| 2026-05-04 18:15 | -38.61309 | -62.13636 | 4108 ft | 185 kts | 8° |
| 2026-05-04 18:15 | -38.60047 | -62.12837 | 3919 ft | 217 kts | 24° |
| 2026-05-04 18:16 | -38.58716 | -62.11784 | 3836 ft | 232 kts | 33° |
| 2026-05-04 18:16 | -38.57453 | -62.10388 | 3717 ft | 241 kts | 41° |
| 2026-05-04 18:16 | -38.56308 | -62.08993 | 4366 ft | 220 kts | 31° |
| 2026-05-04 18:17 | -38.53885 | -62.07026 | 5460 ft | 197 kts | 33° |
| 2026-05-04 18:17 | -38.52813 | -62.05971 | 5942 ft | 191 kts | 29° |
| 2026-05-04 18:17 | -38.50720 | -62.04118 | 6748 ft | 178 kts | 24° |
| 2026-05-04 18:18 | -38.49701 | -62.03236 | 7096 ft | 175 kts | 23° |
| 2026-05-04 18:18 | -38.48702 | -62.02369 | 7423 ft | 172 kts | 22° |
| 2026-05-04 18:18 | -38.47718 | -62.01514 | 7734 ft | 169 kts | 21° |
| 2026-05-04 18:18 | -38.46759 | -62.00692 | 8020 ft | 164 kts | 22° |
| 2026-05-04 18:19 | -38.44908 | -61.99054 | 8561 ft | 161 kts | 29° |
| 2026-05-04 18:19 | -38.44063 | -61.98132 | 8864 ft | 159 kts | 26° |
| 2026-05-04 18:19 | -38.43229 | -61.97248 | 9117 ft | 157 kts | 27° |
| 2026-05-04 18:20 | -38.42376 | -61.96336 | 9238 ft | 166 kts | 27° |
| 2026-05-04 18:20 | -38.41438 | -61.95348 | 9209 ft | 182 kts | 28° |
| 2026-05-04 18:20 | -38.40415 | -61.94274 | 9154 ft | 196 kts | 28° |
| 2026-05-04 18:20 | -38.39335 | -61.93178 | 9137 ft | 204 kts | 29° |
| 2026-05-04 18:21 | -38.38216 | -61.92007 | 9142 ft | 210 kts | 30° |
| 2026-05-04 18:21 | -38.37089 | -61.90798 | 9133 ft | 217 kts | 31° |
| 2026-05-04 18:21 | -38.35912 | -61.89539 | 9142 ft | 223 kts | 31° |
| 2026-05-04 18:21 | -38.34707 | -61.88259 | 9138 ft | 230 kts | 31° |
| 2026-05-04 18:22 | -38.33462 | -61.86936 | 9145 ft | 234 kts | 31° |
| 2026-05-04 18:22 | -38.32198 | -61.85588 | 9147 ft | 237 kts | 31° |
| 2026-05-04 18:22 | -38.30941 | -61.84250 | 9136 ft | 239 kts | 31° |
| 2026-05-04 18:22 | -38.30095 | -61.83351 | 9145 ft | 239 kts | 31° |
| 2026-05-04 18:23 | -38.28384 | -61.81534 | 9147 ft | 239 kts | 31° |
| 2026-05-04 18:23 | -38.27534 | -61.80632 | 9148 ft | 239 kts | 31° |
| 2026-05-04 18:23 | -38.26254 | -61.79272 | 9150 ft | 239 kts | 31° |
| 2026-05-04 18:23 | -38.24969 | -61.77908 | 9149 ft | 240 kts | 31° |
| 2026-05-04 18:24 | -38.23700 | -61.76564 | 9143 ft | 239 kts | 31° |
| 2026-05-04 18:24 | -38.22418 | -61.75205 | 9146 ft | 239 kts | 31° |
| 2026-05-04 18:24 | -38.21143 | -61.73858 | 9147 ft | 240 kts | 31° |
| 2026-05-04 18:24 | -38.19848 | -61.72490 | 9145 ft | 241 kts | 32° |
| 2026-05-04 18:25 | -38.18576 | -61.71144 | 9126 ft | 236 kts | 32° |
| 2026-05-04 18:25 | -38.17316 | -61.69814 | 9142 ft | 233 kts | 32° |
| 2026-05-04 18:25 | -38.16075 | -61.68498 | 9143 ft | 234 kts | 32° |
| 2026-05-04 18:25 | -38.14820 | -61.67169 | 9142 ft | 233 kts | 32° |
| 2026-05-04 18:26 | -38.13568 | -61.65849 | 9147 ft | 233 kts | 32° |
| 2026-05-04 18:26 | -38.12333 | -61.64544 | 9145 ft | 233 kts | 32° |
| 2026-05-04 18:26 | -38.11078 | -61.63217 | 9142 ft | 233 kts | 32° |
| 2026-05-04 18:26 | -38.09841 | -61.61916 | 9144 ft | 233 kts | 32° |
| 2026-05-04 18:27 | -38.08585 | -61.60593 | 9139 ft | 233 kts | 32° |
| 2026-05-04 18:27 | -38.07337 | -61.59279 | 9148 ft | 232 kts | 32° |
| 2026-05-04 18:27 | -38.06096 | -61.57974 | 9149 ft | 233 kts | 32° |
| 2026-05-04 18:27 | -38.04831 | -61.56642 | 9143 ft | 235 kts | 32° |
| 2026-05-04 18:28 | -38.03587 | -61.55331 | 9152 ft | 235 kts | 32° |
| 2026-05-04 18:28 | -38.02322 | -61.53996 | 9149 ft | 235 kts | 32° |
| 2026-05-04 18:28 | -38.01068 | -61.52680 | 9148 ft | 235 kts | 32° |
| 2026-05-04 18:28 | -37.99797 | -61.51349 | 9148 ft | 235 kts | 32° |
| 2026-05-04 18:29 | -37.98549 | -61.50039 | 9144 ft | 235 kts | 32° |
| 2026-05-04 18:29 | -37.97279 | -61.48707 | 9150 ft | 236 kts | 31° |
| 2026-05-04 18:29 | -37.95952 | -61.47521 | 9145 ft | 234 kts | 27° |
| 2026-05-04 18:29 | -37.94620 | -61.46318 | 9157 ft | 234 kts | 27° |
| 2026-05-04 18:30 | -37.91962 | -61.43954 | 9149 ft | 233 kts | 26° |
| 2026-05-04 18:30 | -37.90631 | -61.42781 | 9138 ft | 232 kts | 27° |
| 2026-05-04 18:30 | -37.89320 | -61.41628 | 9146 ft | 231 kts | 27° |
| 2026-05-04 18:31 | -37.87986 | -61.40448 | 9153 ft | 231 kts | 27° |
| 2026-05-04 18:31 | -37.85330 | -61.38095 | 9150 ft | 231 kts | 27° |
| 2026-05-04 18:31 | -37.83663 | -61.36624 | 9146 ft | 231 kts | 27° |
| 2026-05-04 18:31 | -37.82346 | -61.35461 | 9152 ft | 230 kts | 27° |
| 2026-05-04 18:32 | -37.81042 | -61.34310 | 9146 ft | 231 kts | 27° |
| 2026-05-04 18:32 | -37.79726 | -61.33149 | 9146 ft | 229 kts | 27° |
| 2026-05-04 18:32 | -37.78408 | -61.31988 | 9143 ft | 229 kts | 27° |
| 2026-05-04 18:32 | -37.77108 | -61.30845 | 9146 ft | 229 kts | 27° |
| 2026-05-04 18:33 | -37.75798 | -61.29691 | 9148 ft | 228 kts | 27° |
| 2026-05-04 18:33 | -37.74509 | -61.28555 | 9147 ft | 228 kts | 27° |
| 2026-05-04 18:33 | -37.73205 | -61.27406 | 9154 ft | 227 kts | 27° |
| 2026-05-04 18:33 | -37.71922 | -61.26277 | 9153 ft | 227 kts | 27° |
| 2026-05-04 18:34 | -37.70627 | -61.25140 | 9153 ft | 226 kts | 27° |
| 2026-05-04 18:34 | -37.69331 | -61.24001 | 9155 ft | 226 kts | 27° |
| 2026-05-04 18:34 | -37.68033 | -61.22861 | 9155 ft | 226 kts | 27° |
| 2026-05-04 18:34 | -37.66786 | -61.21654 | 9183 ft | 225 kts | 34° |
| 2026-05-04 18:35 | -37.65506 | -61.20509 | 9154 ft | 227 kts | 24° |
| 2026-05-04 18:35 | -37.64183 | -61.19467 | 9152 ft | 225 kts | 25° |
| 2026-05-04 18:35 | -37.62881 | -61.18363 | 9143 ft | 225 kts | 27° |
| 2026-05-04 18:35 | -37.61599 | -61.17231 | 9153 ft | 224 kts | 28° |
| 2026-05-04 18:36 | -37.60330 | -61.16107 | 9154 ft | 225 kts | 28° |
| 2026-05-04 18:36 | -37.59032 | -61.14967 | 9152 ft | 225 kts | 27° |
| 2026-05-04 18:36 | -37.57749 | -61.13844 | 9153 ft | 225 kts | 27° |
| 2026-05-04 18:36 | -37.56472 | -61.12728 | 9152 ft | 225 kts | 27° |
| 2026-05-04 18:37 | -37.55180 | -61.11597 | 9156 ft | 225 kts | 27° |
| 2026-05-04 18:37 | -37.53893 | -61.10472 | 9154 ft | 225 kts | 27° |
| 2026-05-04 18:37 | -37.52612 | -61.09355 | 9154 ft | 225 kts | 27° |
| 2026-05-04 18:37 | -37.51318 | -61.08225 | 9159 ft | 225 kts | 27° |
| 2026-05-04 18:38 | -37.50038 | -61.07105 | 9156 ft | 225 kts | 27° |
| 2026-05-04 18:38 | -37.48745 | -61.05977 | 9157 ft | 225 kts | 27° |
| 2026-05-04 18:38 | -37.47469 | -61.04862 | 9157 ft | 225 kts | 27° |
| 2026-05-04 18:38 | -37.46177 | -61.03738 | 9153 ft | 224 kts | 27° |
| 2026-05-04 18:39 | -37.44893 | -61.02620 | 9154 ft | 224 kts | 27° |
| 2026-05-04 18:39 | -37.43617 | -61.01507 | 9157 ft | 224 kts | 28° |
| 2026-05-04 18:39 | -37.42329 | -61.00385 | 9158 ft | 224 kts | 27° |
| 2026-05-04 18:39 | -37.41055 | -60.99277 | 9163 ft | 224 kts | 28° |
| 2026-05-04 18:40 | -37.39770 | -60.98156 | 9164 ft | 224 kts | 27° |
| 2026-05-04 18:40 | -37.38493 | -60.97045 | 9163 ft | 224 kts | 27° |
| 2026-05-04 18:40 | -37.37203 | -60.95924 | 9163 ft | 224 kts | 27° |
| 2026-05-04 18:40 | -37.35929 | -60.94817 | 9163 ft | 224 kts | 27° |
| 2026-05-04 18:41 | -37.34643 | -60.93702 | 9161 ft | 224 kts | 27° |
| 2026-05-04 18:41 | -37.33358 | -60.92585 | 9162 ft | 225 kts | 28° |
| 2026-05-04 18:41 | -37.32068 | -60.91465 | 9164 ft | 225 kts | 27° |
| 2026-05-04 18:41 | -37.30777 | -60.90345 | 9163 ft | 225 kts | 27° |
| 2026-05-04 18:42 | -37.29500 | -60.89238 | 9165 ft | 225 kts | 27° |
| 2026-05-04 18:42 | -37.28203 | -60.88115 | 9163 ft | 225 kts | 27° |
| 2026-05-04 18:42 | -37.26929 | -60.87011 | 9162 ft | 225 kts | 27° |
| 2026-05-04 18:42 | -37.25634 | -60.85886 | 9162 ft | 225 kts | 27° |
| 2026-05-04 18:43 | -37.24359 | -60.84782 | 9162 ft | 225 kts | 27° |
| 2026-05-04 18:43 | -37.23067 | -60.83666 | 9166 ft | 225 kts | 27° |
| 2026-05-04 18:43 | -37.21785 | -60.82558 | 9162 ft | 225 kts | 27° |
| 2026-05-04 18:43 | -37.20492 | -60.81439 | 9162 ft | 225 kts | 27° |
| 2026-05-04 18:44 | -37.19197 | -60.80319 | 9161 ft | 225 kts | 27° |
| 2026-05-04 18:44 | -37.18336 | -60.79576 | 9160 ft | 225 kts | 27° |
| 2026-05-04 18:44 | -37.16622 | -60.78096 | 9162 ft | 225 kts | 27° |
| 2026-05-04 18:44 | -37.15339 | -60.76988 | 9161 ft | 225 kts | 27° |
| 2026-05-04 18:45 | -37.14041 | -60.75868 | 9163 ft | 225 kts | 27° |
| 2026-05-04 18:45 | -37.12763 | -60.74766 | 9158 ft | 225 kts | 27° |
| 2026-05-04 18:45 | -37.11466 | -60.73648 | 9162 ft | 225 kts | 27° |
| 2026-05-04 18:45 | -37.10184 | -60.72543 | 9163 ft | 225 kts | 27° |
| 2026-05-04 18:46 | -37.08885 | -60.71425 | 9155 ft | 225 kts | 27° |
| 2026-05-04 18:46 | -37.07606 | -60.70335 | 9165 ft | 224 kts | 28° |
| 2026-05-04 18:46 | -37.06320 | -60.69221 | 9173 ft | 224 kts | 28° |
| 2026-05-04 18:46 | -37.05042 | -60.68118 | 9171 ft | 225 kts | 28° |
| 2026-05-04 18:47 | -37.03745 | -60.67001 | 9172 ft | 225 kts | 28° |
| 2026-05-04 18:47 | -37.02463 | -60.65899 | 9171 ft | 225 kts | 28° |
| 2026-05-04 18:47 | -37.01168 | -60.64786 | 9172 ft | 225 kts | 28° |
| 2026-05-04 18:47 | -36.99885 | -60.63684 | 9172 ft | 225 kts | 28° |
| 2026-05-04 18:48 | -36.98588 | -60.62570 | 9169 ft | 225 kts | 28° |
| 2026-05-04 18:48 | -36.97293 | -60.61458 | 9174 ft | 225 kts | 28° |
| 2026-05-04 18:48 | -36.96014 | -60.60362 | 9174 ft | 225 kts | 28° |
| 2026-05-04 18:48 | -36.94715 | -60.59249 | 9174 ft | 225 kts | 28° |
| 2026-05-04 18:49 | -36.93432 | -60.58151 | 9177 ft | 225 kts | 28° |
| 2026-05-04 18:49 | -36.92131 | -60.57036 | 9173 ft | 225 kts | 28° |
| 2026-05-04 18:49 | -36.90852 | -60.55939 | 9173 ft | 225 kts | 28° |
| 2026-05-04 18:49 | -36.89555 | -60.54828 | 9174 ft | 225 kts | 28° |
| 2026-05-04 18:50 | -36.88262 | -60.53722 | 9174 ft | 225 kts | 28° |
| 2026-05-04 18:50 | -36.86979 | -60.52626 | 9174 ft | 225 kts | 28° |
| 2026-05-04 18:50 | -36.85679 | -60.51515 | 9173 ft | 225 kts | 28° |
| 2026-05-04 18:50 | -36.84403 | -60.50425 | 9173 ft | 224 kts | 28° |
| 2026-05-04 18:51 | -36.83111 | -60.49320 | 9172 ft | 224 kts | 28° |
| 2026-05-04 18:51 | -36.81815 | -60.48214 | 9174 ft | 224 kts | 28° |
| 2026-05-04 18:51 | -36.80536 | -60.47122 | 9166 ft | 224 kts | 28° |
| 2026-05-04 18:51 | -36.79252 | -60.46037 | 9165 ft | 224 kts | 29° |
| 2026-05-04 18:52 | -36.77960 | -60.44932 | 9174 ft | 224 kts | 29° |
| 2026-05-04 18:52 | -36.76667 | -60.43822 | 9172 ft | 225 kts | 29° |
| 2026-05-04 18:52 | -36.75387 | -60.42731 | 9176 ft | 225 kts | 29° |
| 2026-05-04 18:52 | -36.74087 | -60.41623 | 9175 ft | 225 kts | 29° |
| 2026-05-04 18:53 | -36.72807 | -60.40534 | 9177 ft | 225 kts | 29° |
| 2026-05-04 18:53 | -36.71507 | -60.39428 | 9179 ft | 225 kts | 29° |
| 2026-05-04 18:53 | -36.70206 | -60.38322 | 9180 ft | 225 kts | 29° |
| 2026-05-04 18:53 | -36.68924 | -60.37233 | 9177 ft | 225 kts | 29° |
| 2026-05-04 18:54 | -36.67622 | -60.36123 | 9177 ft | 225 kts | 29° |
| 2026-05-04 18:54 | -36.66328 | -60.35024 | 9179 ft | 225 kts | 29° |
| 2026-05-04 18:54 | -36.65046 | -60.33937 | 9169 ft | 225 kts | 29° |
| 2026-05-04 18:54 | -36.63736 | -60.32827 | 9179 ft | 225 kts | 29° |
| 2026-05-04 18:55 | -36.62447 | -60.31731 | 9180 ft | 226 kts | 29° |
| 2026-05-04 18:55 | -36.59859 | -60.29535 | 9179 ft | 226 kts | 29° |
| 2026-05-04 18:55 | -36.58554 | -60.28429 | 9174 ft | 225 kts | 29° |
| 2026-05-04 18:56 | -36.57269 | -60.27340 | 9178 ft | 225 kts | 29° |
| 2026-05-04 18:56 | -36.55963 | -60.26237 | 9179 ft | 225 kts | 29° |
| 2026-05-04 18:56 | -36.54677 | -60.25148 | 9179 ft | 225 kts | 29° |
| 2026-05-04 18:56 | -36.53372 | -60.24043 | 9178 ft | 225 kts | 29° |
| 2026-05-04 18:57 | -36.52071 | -60.22947 | 9175 ft | 225 kts | 29° |
| 2026-05-04 18:57 | -36.50775 | -60.21854 | 9178 ft | 224 kts | 29° |
| 2026-05-04 18:57 | -36.49490 | -60.20772 | 9180 ft | 225 kts | 29° |
| 2026-05-04 18:57 | -36.48205 | -60.19692 | 9179 ft | 224 kts | 29° |
| 2026-05-04 18:58 | -36.46901 | -60.18598 | 9179 ft | 224 kts | 29° |
| 2026-05-04 18:58 | -36.45605 | -60.17510 | 9178 ft | 224 kts | 29° |
| 2026-05-04 18:58 | -36.44224 | -60.16354 | 9178 ft | 224 kts | 29° |
| 2026-05-04 18:58 | -36.41647 | -60.14193 | 9188 ft | 225 kts | 29° |
| 2026-05-04 18:59 | -36.39403 | -60.12310 | 9183 ft | 225 kts | 29° |
| 2026-05-04 18:59 | -36.38109 | -60.11231 | 9185 ft | 225 kts | 29° |
| 2026-05-04 18:59 | -36.36808 | -60.10142 | 9186 ft | 225 kts | 29° |
| 2026-05-04 18:59 | -36.35505 | -60.09049 | 9184 ft | 225 kts | 29° |
| 2026-05-04 19:00 | -36.33228 | -60.07148 | 9193 ft | 224 kts | 29° |
| 2026-05-04 19:00 | -36.30615 | -60.04963 | 9189 ft | 225 kts | 29° |
| 2026-05-04 19:00 | -36.28030 | -60.02804 | 9189 ft | 225 kts | 29° |
| 2026-05-04 19:00 | -36.25888 | -60.01022 | 9192 ft | 225 kts | 29° |
| 2026-05-04 19:01 | -36.24595 | -59.99945 | 9181 ft | 225 kts | 29° |
| 2026-05-04 19:01 | -36.23298 | -59.98867 | 9185 ft | 224 kts | 30° |
| 2026-05-04 19:01 | -36.22001 | -59.97784 | 9177 ft | 224 kts | 30° |
| 2026-05-04 19:01 | -36.20702 | -59.96702 | 9186 ft | 224 kts | 30° |
| 2026-05-04 19:02 | -36.19419 | -59.95632 | 9190 ft | 223 kts | 30° |
| 2026-05-04 19:02 | -36.18123 | -59.94554 | 9190 ft | 224 kts | 30° |
| 2026-05-04 19:02 | -36.16840 | -59.93490 | 9192 ft | 224 kts | 30° |
| 2026-05-04 19:02 | -36.15542 | -59.92409 | 9192 ft | 224 kts | 30° |
| 2026-05-04 19:03 | -36.14262 | -59.91344 | 9191 ft | 224 kts | 30° |
| 2026-05-04 19:03 | -36.12969 | -59.90271 | 9193 ft | 224 kts | 30° |
| 2026-05-04 19:03 | -36.11663 | -59.89187 | 9192 ft | 224 kts | 30° |
| 2026-05-04 19:03 | -36.10376 | -59.88117 | 9186 ft | 224 kts | 30° |
| 2026-05-04 19:04 | -36.09084 | -59.87043 | 9193 ft | 224 kts | 29° |
| 2026-05-04 19:04 | -36.07800 | -59.85983 | 9196 ft | 224 kts | 29° |
| 2026-05-04 19:04 | -36.06504 | -59.84910 | 9195 ft | 224 kts | 30° |
| 2026-05-04 19:04 | -36.05211 | -59.83839 | 9194 ft | 223 kts | 30° |
| 2026-05-04 19:05 | -36.03919 | -59.82767 | 9195 ft | 223 kts | 30° |
| 2026-05-04 19:05 | -36.02642 | -59.81707 | 9195 ft | 223 kts | 29° |
| 2026-05-04 19:05 | -36.01350 | -59.80634 | 9193 ft | 223 kts | 30° |
| 2026-05-04 19:05 | -36.00086 | -59.79511 | 9195 ft | 224 kts | 32° |
| 2026-05-04 19:06 | -35.99253 | -59.78750 | 9197 ft | 225 kts | 32° |
| 2026-05-04 19:06 | -35.97999 | -59.77598 | 9199 ft | 224 kts | 32° |
| 2026-05-04 19:06 | -35.96742 | -59.76442 | 9191 ft | 225 kts | 32° |
| 2026-05-04 19:06 | -35.95486 | -59.75287 | 9197 ft | 225 kts | 32° |
| 2026-05-04 19:07 | -35.94235 | -59.74138 | 9199 ft | 226 kts | 32° |
| 2026-05-04 19:07 | -35.92971 | -59.72978 | 9196 ft | 226 kts | 32° |
| 2026-05-04 19:07 | -35.91711 | -59.71822 | 9195 ft | 226 kts | 32° |
| 2026-05-04 19:07 | -35.90446 | -59.70663 | 9196 ft | 226 kts | 32° |
| 2026-05-04 19:08 | -35.89183 | -59.69504 | 9196 ft | 226 kts | 32° |
| 2026-05-04 19:08 | -35.87935 | -59.68358 | 9197 ft | 226 kts | 32° |
| 2026-05-04 19:08 | -35.86670 | -59.67199 | 9198 ft | 226 kts | 32° |
| 2026-05-04 19:08 | -35.85401 | -59.66039 | 9195 ft | 226 kts | 32° |
| 2026-05-04 19:09 | -35.84143 | -59.64889 | 9195 ft | 226 kts | 32° |
| 2026-05-04 19:09 | -35.82892 | -59.63745 | 9196 ft | 226 kts | 32° |
| 2026-05-04 19:09 | -35.81622 | -59.62598 | 9207 ft | 226 kts | 28° |
| 2026-05-04 19:09 | -35.80178 | -59.61891 | 9201 ft | 222 kts | 9° |
| 2026-05-04 19:10 | -35.78819 | -59.61041 | 9197 ft | 221 kts | 36° |
| 2026-05-04 19:10 | -35.78046 | -59.60199 | 9199 ft | 225 kts | 36° |
| 2026-05-04 19:10 | -35.76365 | -59.58684 | 9197 ft | 225 kts | 27° |
| 2026-05-04 19:10 | -35.75029 | -59.57671 | 9197 ft | 225 kts | 26° |
| 2026-05-04 19:11 | -35.73694 | -59.56664 | 9205 ft | 225 kts | 27° |
| 2026-05-04 19:11 | -35.72369 | -59.55640 | 9203 ft | 225 kts | 27° |
| 2026-05-04 19:11 | -35.71045 | -59.54607 | 9203 ft | 225 kts | 27° |
| 2026-05-04 19:11 | -35.69719 | -59.53573 | 9203 ft | 226 kts | 27° |
| 2026-05-04 19:12 | -35.68406 | -59.52555 | 9193 ft | 226 kts | 27° |
| 2026-05-04 19:12 | -35.65730 | -59.50479 | 9203 ft | 227 kts | 27° |
| 2026-05-04 19:12 | -35.64390 | -59.49441 | 9201 ft | 227 kts | 27° |
| 2026-05-04 19:13 | -35.63064 | -59.48415 | 9207 ft | 227 kts | 27° |
| 2026-05-04 19:13 | -35.61729 | -59.47380 | 9205 ft | 227 kts | 27° |
| 2026-05-04 19:13 | -35.60391 | -59.46344 | 9202 ft | 227 kts | 27° |
| 2026-05-04 19:13 | -35.59050 | -59.45304 | 9202 ft | 227 kts | 27° |
| 2026-05-04 19:14 | -35.57717 | -59.44272 | 9200 ft | 227 kts | 27° |
| 2026-05-04 19:14 | -35.56380 | -59.43239 | 9203 ft | 227 kts | 27° |
| 2026-05-04 19:14 | -35.55044 | -59.42207 | 9202 ft | 227 kts | 27° |
| 2026-05-04 19:14 | -35.53707 | -59.41175 | 9201 ft | 227 kts | 27° |
| 2026-05-04 19:15 | -35.52372 | -59.40143 | 9205 ft | 227 kts | 27° |
| 2026-05-04 19:15 | -35.51032 | -59.39107 | 9208 ft | 227 kts | 27° |
| 2026-05-04 19:15 | -35.49701 | -59.38078 | 9207 ft | 227 kts | 27° |
| 2026-05-04 19:15 | -35.48373 | -59.37055 | 9211 ft | 227 kts | 27° |
| 2026-05-04 19:16 | -35.47030 | -59.36020 | 9208 ft | 227 kts | 27° |
| 2026-05-04 19:16 | -35.45678 | -59.34997 | 9220 ft | 227 kts | 22° |
| 2026-05-04 19:16 | -35.44284 | -59.34127 | 9205 ft | 226 kts | 22° |
| 2026-05-04 19:16 | -35.42885 | -59.33224 | 9210 ft | 226 kts | 22° |
| 2026-05-04 19:17 | -35.41505 | -59.32344 | 9209 ft | 225 kts | 21° |
| 2026-05-04 19:17 | -35.40112 | -59.31467 | 9202 ft | 224 kts | 21° |
| 2026-05-04 19:17 | -35.38724 | -59.30592 | 9209 ft | 223 kts | 22° |
| 2026-05-04 19:17 | -35.37339 | -59.29715 | 9212 ft | 223 kts | 22° |
| 2026-05-04 19:18 | -35.35971 | -59.28849 | 9213 ft | 223 kts | 22° |
| 2026-05-04 19:18 | -35.34586 | -59.27974 | 9217 ft | 223 kts | 22° |
| 2026-05-04 19:18 | -35.33197 | -59.27098 | 9215 ft | 224 kts | 21° |
| 2026-05-04 19:18 | -35.31825 | -59.26234 | 9216 ft | 224 kts | 22° |
| 2026-05-04 19:19 | -35.30433 | -59.25354 | 9218 ft | 224 kts | 22° |
| 2026-05-04 19:19 | -35.29040 | -59.24474 | 9220 ft | 224 kts | 22° |
| 2026-05-04 19:19 | -35.27652 | -59.23599 | 9222 ft | 224 kts | 22° |
| 2026-05-04 19:19 | -35.26282 | -59.22735 | 9219 ft | 224 kts | 22° |
| 2026-05-04 19:20 | -35.24895 | -59.21861 | 9216 ft | 224 kts | 22° |
| 2026-05-04 19:20 | -35.23515 | -59.20993 | 9216 ft | 224 kts | 22° |
| 2026-05-04 19:20 | -35.22118 | -59.20115 | 9218 ft | 224 kts | 22° |
| 2026-05-04 19:20 | -35.20723 | -59.19240 | 9215 ft | 224 kts | 22° |
| 2026-05-04 19:21 | -35.19347 | -59.18374 | 9217 ft | 224 kts | 22° |
| 2026-05-04 19:21 | -35.17969 | -59.17504 | 9210 ft | 225 kts | 22° |
| 2026-05-04 19:21 | -35.16580 | -59.16630 | 9220 ft | 224 kts | 22° |
| 2026-05-04 19:21 | -35.15181 | -59.15753 | 9220 ft | 224 kts | 22° |
| 2026-05-04 19:22 | -35.13809 | -59.14894 | 9209 ft | 221 kts | 22° |
| 2026-05-04 19:22 | -35.12439 | -59.14035 | 9226 ft | 221 kts | 22° |
| 2026-05-04 19:22 | -35.11083 | -59.13181 | 9222 ft | 221 kts | 22° |
| 2026-05-04 19:22 | -35.09702 | -59.12313 | 9223 ft | 221 kts | 22° |
| 2026-05-04 19:23 | -35.08343 | -59.11462 | 9220 ft | 221 kts | 22° |
| 2026-05-04 19:23 | -35.06967 | -59.10599 | 9220 ft | 221 kts | 22° |
| 2026-05-04 19:23 | -35.05594 | -59.09739 | 9221 ft | 221 kts | 22° |
| 2026-05-04 19:23 | -35.04241 | -59.08891 | 9224 ft | 221 kts | 22° |
| 2026-05-04 19:24 | -35.02867 | -59.08031 | 9214 ft | 221 kts | 22° |
| 2026-05-04 19:24 | -35.01513 | -59.07185 | 9221 ft | 221 kts | 22° |
| 2026-05-04 19:24 | -35.00141 | -59.06327 | 9220 ft | 221 kts | 22° |
| 2026-05-04 19:24 | -34.98779 | -59.05473 | 9219 ft | 221 kts | 22° |
| 2026-05-04 19:25 | -34.97406 | -59.04613 | 9226 ft | 221 kts | 22° |
| 2026-05-04 19:25 | -34.96041 | -59.03763 | 9218 ft | 221 kts | 22° |
| 2026-05-04 19:25 | -34.94663 | -59.02905 | 9233 ft | 221 kts | 22° |
| 2026-05-04 19:25 | -34.93293 | -59.02049 | 9062 ft | 228 kts | 22° |
| 2026-05-04 19:26 | -34.91872 | -59.01159 | 8872 ft | 228 kts | 22° |
| 2026-05-04 19:26 | -34.90466 | -59.00276 | 8630 ft | 226 kts | 22° |
| 2026-05-04 19:26 | -34.89062 | -58.99401 | 8361 ft | 226 kts | 22° |
| 2026-05-04 19:26 | -34.87662 | -58.98528 | 8099 ft | 222 kts | 22° |
| 2026-05-04 19:27 | -34.86309 | -58.97695 | 7715 ft | 217 kts | 22° |
| 2026-05-04 19:27 | -34.84974 | -58.96856 | 7209 ft | 220 kts | 22° |
| 2026-05-04 19:27 | -34.83593 | -58.95990 | 6551 ft | 227 kts | 22° |
| 2026-05-04 19:27 | -34.82156 | -58.95096 | 5807 ft | 234 kts | 22° |
| 2026-05-04 19:28 | -34.80692 | -58.94193 | 5109 ft | 236 kts | 22° |
| 2026-05-04 19:28 | -34.79235 | -58.93290 | 4561 ft | 232 kts | 22° |
| 2026-05-04 19:28 | -34.77818 | -58.92411 | 4051 ft | 230 kts | 22° |
| 2026-05-04 19:28 | -34.76411 | -58.91532 | 3637 ft | 221 kts | 23° |
| 2026-05-04 19:29 | -34.75078 | -58.90699 | 3464 ft | 209 kts | 23° |
| 2026-05-04 19:29 | -34.73804 | -58.89901 | 3265 ft | 211 kts | 22° |
| 2026-05-04 19:29 | -34.72470 | -58.89083 | 3080 ft | 215 kts | 22° |
| 2026-05-04 19:29 | -34.71101 | -58.88244 | 3000 ft | 222 kts | 23° |
| 2026-05-04 19:30 | -34.69735 | -58.87396 | 3007 ft | 223 kts | 24° |
| 2026-05-04 19:30 | -34.68358 | -58.86536 | 3025 ft | 221 kts | 24° |
| 2026-05-04 19:30 | -34.66983 | -58.85679 | 3030 ft | 223 kts | 24° |
| 2026-05-04 19:30 | -34.65609 | -58.84829 | 3032 ft | 224 kts | 24° |
| 2026-05-04 19:31 | -34.64211 | -58.83959 | 3024 ft | 224 kts | 24° |
| 2026-05-04 19:31 | -34.62836 | -58.83099 | 3031 ft | 225 kts | 23° |
| 2026-05-04 19:31 | -34.61440 | -58.82237 | 3033 ft | 225 kts | 23° |
| 2026-05-04 19:31 | -34.60042 | -58.81379 | 3022 ft | 225 kts | 23° |
| 2026-05-04 19:32 | -34.58634 | -58.80519 | 3024 ft | 225 kts | 24° |
| 2026-05-04 19:32 | -34.57303 | -58.79560 | 3008 ft | 225 kts | 38° |
| 2026-05-04 19:32 | -34.56369 | -58.78017 | 2882 ft | 234 kts | 64° |
| 2026-05-04 19:32 | -34.56027 | -58.76089 | 2751 ft | 231 kts | 82° |
| 2026-05-04 19:33 | -34.55945 | -58.74205 | 2592 ft | 220 kts | 85° |
| 2026-05-04 19:33 | -34.55865 | -58.72384 | 2358 ft | 214 kts | 84° |
| 2026-05-04 19:33 | -34.55735 | -58.70594 | 2207 ft | 205 kts | 73° |
| 2026-05-04 19:33 | -34.54952 | -58.69269 | 1712 ft | 204 kts | 34° |
| 2026-05-04 19:34 | -34.53710 | -58.68289 | 1216 ft | 206 kts | 31° |
| 2026-05-04 19:34 | -34.52589 | -58.67343 | 1318 ft | 188 kts | 37° |
| 2026-05-04 19:34 | -34.51616 | -58.66251 | 1238 ft | 193 kts | 41° |
| 2026-05-04 19:34 | -34.50628 | -58.65104 | 1099 ft | 198 kts | 40° |
| 2026-05-04 19:35 | -34.49610 | -58.63990 | 887 ft | 194 kts | 40° |
| 2026-05-04 19:35 | -34.48796 | -58.63028 | 704 ft | 133 kts | 43° |
| 2026-05-04 19:35 | -34.48222 | -58.62310 | 565 ft | 115 kts | 38° |
| 2026-05-04 19:35 | -34.47638 | -58.61637 | 428 ft | 113 kts | 38° |
| 2026-05-04 19:36 | -34.47069 | -58.60983 | 313 ft | 114 kts | 36° |
| 2026-05-04 19:36 | -34.46519 | -58.60361 | 216 ft | 102 kts | 38° |
| 2026-05-04 19:36 | -34.46059 | -58.59810 | 74 ft | 87 kts | 37° |
| 2026-05-04 19:36 | -34.45675 | -58.59355 | 22 ft | 44 kts | 50° |
| 2026-05-04 19:37 | -34.45516 | -58.59165 | 22 ft | 30 kts | 43° |
| 2026-05-04 19:37 | -34.45350 | -58.58964 | 22 ft | 36 kts | 43° |
| 2026-05-04 19:37 | -34.45157 | -58.58736 | 22 ft | 46 kts | 45° |